Ravinia, South Dakota
Current Conditions -  °F | °C
As of 7:53 AM on Tuesday 27 Jan 2015 (Local Time) from KMHE Reporting Station
Clear Clear  
Wind Chill: 23°   Ceiling: Unl
Heat Index: 31°   Visibility: 10mi
Dew Point: 29°   Wind: 9mph
Humidity: 92%   Direction: 140°SE
Pressure: 30.06"   Gusts: NA
Location:  43.14°N, 98.43°W
Report Text: KMHE 271353Z AUTO 14008KT 10SM CLR M01/M02 A3006 RMK AO2 SLP190 T10061017
Loading
Personal Weather Stations






























Interactive Weather Map New forecast layout! Learn more

10-Day Weather Forecast

Advertisements
Track Severe Weather on mobile